Ship Status Report: callsign IDDEU03

sailwx.info

Track history (hours):
 
Tides and Currents Weather Stations Pressure Air Temp Water Temp Dewpoint Dewpoint Depression Visibility Wind Speed Wind Dir Waves Ship Positions

Callsign IDDEU03 (name unknown)

Last reported at 2018-Apr-07 17:00 UTC. Time now 2018-Apr-24 18:33 UTC.
Position N 46°48' W 056°12'.
Warning: this ship's position is 17 days out of date.

Barometer 1001.5 mb

Date/timePositionNaut miles runAvg speedWind from/ knotsBaromVisibWave heightAir tempDewpointWater temp
2018-Apr-07 17:00N 46°48' W 056°12'4 4.1 1001.5
2018-Apr-07 16:00N 46°48' W 056°06'1312.7 1000.9
2018-Apr-07 15:00N 47°00' W 056°12'0 0.0 1003.1
2018-Apr-07 14:00N 47°00' W 056°12'7 7.3 1004.8
2018-Apr-07 13:00N 47°06' W 056°18'1010.1 1006.9
2018-Apr-07 12:00N 47°12' W 056°30'1413.6 1008.6
2018-Apr-07 11:00N 47°06' W 056°48'1010.1 1009.4
2018-Apr-07 10:00N 47°00' W 057°00'1413.7 1010.7
2018-Apr-07 09:00N 46°54' W 057°18'2110.7 1012.4
2018-Apr-07 07:00N 46°48' W 057°48'1010.2 1014.6
2018-Apr-07 06:00N 46°42' W 058°00'1413.7 1015.4
2018-Apr-07 05:00N 46°36' W 058°18'1010.2 1016.5
2018-Apr-07 04:00N 46°30' W 058°30'6711.2 1016.9
2018-Apr-06 22:00N 46°18' W 060°06'7 7.3 1015.6
2018-Apr-06 21:00N 46°12' W 060°12'6 6.0 1015.5
2018-Apr-06 20:00N 46°06' W 060°12'0 0.0 1015.0
2018-Apr-06 19:00N 46°06' W 060°12'0 0.0 1014.6
2018-Apr-06 18:00N 46°06' W 060°12'0 0.0 1015.0
2018-Apr-06 17:00N 46°06' W 060°12'0 0.0 1014.6
2018-Apr-06 16:00N 46°06' W 060°12'0 0.0 1014.3
2018-Apr-06 15:00N 46°06' W 060°12'0 0.0 1014.3
2018-Apr-06 14:00N 46°06' W 060°12'0 0.0 1013.8
2018-Apr-06 13:00N 46°06' W 060°12'0 0.0 1013.2
2018-Apr-06 12:00N 46°06' W 060°12'0 0.0 1012.8
2018-Apr-06 11:00N 46°06' W 060°12'0 0.0 1012.4
2018-Apr-06 10:00N 46°06' W 060°12'0 0.0 1011.7
2018-Apr-06 09:00N 46°06' W 060°12'0 0.0 1010.8
2018-Apr-06 08:00N 46°06' W 060°12'0 0.0 1010.2
2018-Apr-06 07:00N 46°06' W 060°12'0 0.0 1009.3
2018-Apr-06 06:00N 46°06' W 060°12'0 0.0 1008.7
2018-Apr-06 05:00N 46°06' W 060°12'0 0.0 1008.2
2018-Apr-06 04:00N 46°06' W 060°12'0 0.0 1007.3
2018-Apr-06 03:00N 46°06' W 060°12'0 0.0 1006.4
2018-Apr-06 02:00N 46°06' W 060°12'0 0.0 1005.7
2018-Apr-06 01:00N 46°06' W 060°12'0 0.0 1004.4
2018-Apr-06 00:00N 46°06' W 060°12'0 0.0 1003.8
2018-Apr-05 23:00N 46°06' W 060°12'0 0.0 1002.4
2018-Apr-05 22:00N 46°06' W 060°12'0 0.0 1001.1
2018-Apr-05 21:00N 46°06' W 060°12'0 0.0 1000.2
2018-Apr-05 20:00N 46°06' W 060°12'0 0.0 999.1
2018-Apr-05 19:00N 46°06' W 060°12'0 0.0 998.3
2018-Apr-05 18:00N 46°06' W 060°12'0 0.0 997.8
2018-Apr-05 17:00N 46°06' W 060°12'0 0.0 997.1
2018-Apr-05 16:00N 46°06' W 060°12'0 0.0 996.4
2018-Apr-05 15:00N 46°06' W 060°12'0 0.0 995.4
2018-Apr-05 14:00N 46°06' W 060°12'0 0.0 994.6
2018-Apr-05 13:00N 46°06' W 060°12'0 0.0 994.5
2018-Apr-05 12:00N 46°06' W 060°12'0 0.0 993.7
2018-Apr-05 11:00N 46°06' W 060°12'0 0.0 992.2
2018-Apr-05 10:00N 46°06' W 060°12'0 0.0 991.1
2018-Apr-05 09:00N 46°06' W 060°12'0 0.0 990.5
2018-Apr-05 08:00N 46°06' W 060°12'0 0.0 990.8
2018-Apr-05 07:00N 46°06' W 060°12'0 0.0 991.9
2018-Apr-05 06:00N 46°06' W 060°12'0 0.0 992.5
2018-Apr-05 05:00N 46°06' W 060°12'0 0.0 993.9
2018-Apr-05 04:00N 46°06' W 060°12'0 0.0 995.5
2018-Apr-05 03:00N 46°06' W 060°12'0 0.0 997.0
2018-Apr-05 02:00N 46°06' W 060°12'0 0.0
2018-Apr-05 01:00N 46°06' W 060°12'0 0.0 999.1
2018-Apr-05 00:00N 46°06' W 060°12'0 0.0
2018-Apr-04 23:00N 46°06' W 060°12'0 0.0 1001.3
2018-Apr-04 22:00N 46°06' W 060°12'0 0.0 1003.5
2018-Apr-04 21:00N 46°06' W 060°12'0 0.0 1002.8
2018-Apr-04 20:00N 46°06' W 060°12'0 0.0 1007.7
2018-Apr-04 19:00N 46°06' W 060°12'0 0.0 1010.3
2018-Apr-04 18:00N 46°06' W 060°12'0 0.0 1011.4
2018-Apr-04 17:00N 46°06' W 060°12'0 0.0 1012.7
2018-Apr-04 16:00N 46°06' W 060°12'0 0.0 1014.0
2018-Apr-04 15:00N 46°06' W 060°12'0 0.0 1016.1
2018-Apr-04 14:00N 46°06' W 060°12'0 0.0 1017.5
2018-Apr-04 13:00N 46°06' W 060°12'0 0.0 1018.6
2018-Apr-04 12:00N 46°06' W 060°12'6 6.0 1019.3
2018-Apr-04 11:00N 46°12' W 060°12'7 7.3 1020.2
2018-Apr-04 10:00N 46°18' W 060°06'8 8.3 1020.1
2018-Apr-04 09:00N 46°18' W 059°54'1010.2 1021.1
2018-Apr-04 08:00N 46°24' W 059°42'8 8.3 1021.6
2018-Apr-04 07:00N 46°24' W 059°30'1212.4 1022.0
2018-Apr-04 06:00N 46°24' W 059°12'8 8.3 1022.4
2018-Apr-04 05:00N 46°24' W 059°00'1010.2 1023.3
2018-Apr-04 04:00N 46°30' W 058°48'1212.4 1023.9
2018-Apr-04 03:00N 46°30' W 058°30'8 8.3 1024.6
2018-Apr-04 02:00N 46°30' W 058°18'1010.2 1025.4
2018-Apr-04 01:00N 46°36' W 058°06'1212.4 1025.1
2018-Apr-04 00:00N 46°36' W 057°48'8 8.2 1024.3
2018-Apr-03 23:00N 46°36' W 057°36'8 8.2 1023.1
2018-Apr-03 22:00N 46°36' W 057°24'1010.2 1022.3
2018-Apr-03 21:00N 46°42' W 057°12'8 8.2 1021.0
2018-Apr-03 20:00N 46°42' W 057°00'1212.3 1020.7
2018-Apr-03 19:00N 46°42' W 056°42'8 8.2 1020.1
2018-Apr-03 18:00N 46°42' W 056°30'1010.2 1019.0
2018-Apr-03 17:00N 46°48' W 056°18'4 4.1 1018.1
2018-Apr-03 16:00N 46°48' W 056°12'0 0.0 1019.0
2018-Apr-03 15:00N 46°48' W 056°12'   1019.0
Track history (hours):
 
Tides and Currents Weather Stations Pressure Air Temp Water Temp Dewpoint Dewpoint Depression Visibility Wind Speed Wind Dir Waves Ship Positions

Callsign IDDEU03 (name unknown)

Last reported at 2018-Apr-07 17:00 UTC. Time now 2018-Apr-24 18:33 UTC.
Position N 46°48' W 056°12'.
Warning: this ship's position is 17 days out of date.

Barometer 1001.5 mb

Date/timePositionNaut miles runAvg speedWind from/ knotsBaromVisibWave heightAir tempDewpointWater temp
2018-Apr-07 17:00N 46°48' W 056°12'4 4.1 1001.5
2018-Apr-07 16:00N 46°48' W 056°06'1312.7 1000.9
2018-Apr-07 15:00N 47°00' W 056°12'0 0.0 1003.1
2018-Apr-07 14:00N 47°00' W 056°12'7 7.3 1004.8
2018-Apr-07 13:00N 47°06' W 056°18'1010.1 1006.9
2018-Apr-07 12:00N 47°12' W 056°30'1413.6 1008.6
2018-Apr-07 11:00N 47°06' W 056°48'1010.1 1009.4
2018-Apr-07 10:00N 47°00' W 057°00'1413.7 1010.7
2018-Apr-07 09:00N 46°54' W 057°18'2110.7 1012.4
2018-Apr-07 07:00N 46°48' W 057°48'1010.2 1014.6
2018-Apr-07 06:00N 46°42' W 058°00'1413.7 1015.4
2018-Apr-07 05:00N 46°36' W 058°18'1010.2 1016.5
2018-Apr-07 04:00N 46°30' W 058°30'6711.2 1016.9
2018-Apr-06 22:00N 46°18' W 060°06'7 7.3 1015.6
2018-Apr-06 21:00N 46°12' W 060°12'6 6.0 1015.5
2018-Apr-06 20:00N 46°06' W 060°12'0 0.0 1015.0
2018-Apr-06 19:00N 46°06' W 060°12'0 0.0 1014.6
2018-Apr-06 18:00N 46°06' W 060°12'0 0.0 1015.0
2018-Apr-06 17:00N 46°06' W 060°12'0 0.0 1014.6
2018-Apr-06 16:00N 46°06' W 060°12'0 0.0 1014.3
2018-Apr-06 15:00N 46°06' W 060°12'0 0.0 1014.3
2018-Apr-06 14:00N 46°06' W 060°12'0 0.0 1013.8
2018-Apr-06 13:00N 46°06' W 060°12'0 0.0 1013.2
2018-Apr-06 12:00N 46°06' W 060°12'0 0.0 1012.8
2018-Apr-06 11:00N 46°06' W 060°12'0 0.0 1012.4
2018-Apr-06 10:00N 46°06' W 060°12'0 0.0 1011.7
2018-Apr-06 09:00N 46°06' W 060°12'0 0.0 1010.8
2018-Apr-06 08:00N 46°06' W 060°12'0 0.0 1010.2
2018-Apr-06 07:00N 46°06' W 060°12'0 0.0 1009.3
2018-Apr-06 06:00N 46°06' W 060°12'0 0.0 1008.7
2018-Apr-06 05:00N 46°06' W 060°12'0 0.0 1008.2
2018-Apr-06 04:00N 46°06' W 060°12'0 0.0 1007.3
2018-Apr-06 03:00N 46°06' W 060°12'0 0.0 1006.4
2018-Apr-06 02:00N 46°06' W 060°12'0 0.0 1005.7
2018-Apr-06 01:00N 46°06' W 060°12'0 0.0 1004.4
2018-Apr-06 00:00N 46°06' W 060°12'0 0.0 1003.8
2018-Apr-05 23:00N 46°06' W 060°12'0 0.0 1002.4
2018-Apr-05 22:00N 46°06' W 060°12'0 0.0 1001.1
2018-Apr-05 21:00N 46°06' W 060°12'0 0.0 1000.2
2018-Apr-05 20:00N 46°06' W 060°12'0 0.0 999.1
2018-Apr-05 19:00N 46°06' W 060°12'0 0.0 998.3
2018-Apr-05 18:00N 46°06' W 060°12'0 0.0 997.8
2018-Apr-05 17:00N 46°06' W 060°12'0 0.0 997.1
2018-Apr-05 16:00N 46°06' W 060°12'0 0.0 996.4
2018-Apr-05 15:00N 46°06' W 060°12'0 0.0 995.4
2018-Apr-05 14:00N 46°06' W 060°12'0 0.0 994.6
2018-Apr-05 13:00N 46°06' W 060°12'0 0.0 994.5
2018-Apr-05 12:00N 46°06' W 060°12'0 0.0 993.7
2018-Apr-05 11:00N 46°06' W 060°12'0 0.0 992.2
2018-Apr-05 10:00N 46°06' W 060°12'0 0.0 991.1
2018-Apr-05 09:00N 46°06' W 060°12'0 0.0 990.5
2018-Apr-05 08:00N 46°06' W 060°12'0 0.0 990.8
2018-Apr-05 07:00N 46°06' W 060°12'0 0.0 991.9
2018-Apr-05 06:00N 46°06' W 060°12'0 0.0 992.5
2018-Apr-05 05:00N 46°06' W 060°12'0 0.0 993.9
2018-Apr-05 04:00N 46°06' W 060°12'0 0.0 995.5
2018-Apr-05 03:00N 46°06' W 060°12'0 0.0 997.0
2018-Apr-05 02:00N 46°06' W 060°12'0 0.0
2018-Apr-05 01:00N 46°06' W 060°12'0 0.0 999.1
2018-Apr-05 00:00N 46°06' W 060°12'0 0.0
2018-Apr-04 23:00N 46°06' W 060°12'0 0.0 1001.3
2018-Apr-04 22:00N 46°06' W 060°12'0 0.0 1003.5
2018-Apr-04 21:00N 46°06' W 060°12'0 0.0 1002.8
2018-Apr-04 20:00N 46°06' W 060°12'0 0.0 1007.7
2018-Apr-04 19:00N 46°06' W 060°12'0 0.0 1010.3
2018-Apr-04 18:00N 46°06' W 060°12'0 0.0 1011.4
2018-Apr-04 17:00N 46°06' W 060°12'0 0.0 1012.7
2018-Apr-04 16:00N 46°06' W 060°12'0 0.0 1014.0
2018-Apr-04 15:00N 46°06' W 060°12'0 0.0 1016.1
2018-Apr-04 14:00N 46°06' W 060°12'0 0.0 1017.5
2018-Apr-04 13:00N 46°06' W 060°12'0 0.0 1018.6
2018-Apr-04 12:00N 46°06' W 060°12'6 6.0 1019.3
2018-Apr-04 11:00N 46°12' W 060°12'7 7.3 1020.2
2018-Apr-04 10:00N 46°18' W 060°06'8 8.3 1020.1
2018-Apr-04 09:00N 46°18' W 059°54'1010.2 1021.1
2018-Apr-04 08:00N 46°24' W 059°42'8 8.3 1021.6
2018-Apr-04 07:00N 46°24' W 059°30'1212.4 1022.0
2018-Apr-04 06:00N 46°24' W 059°12'8 8.3 1022.4
2018-Apr-04 05:00N 46°24' W 059°00'1010.2 1023.3
2018-Apr-04 04:00N 46°30' W 058°48'1212.4 1023.9
2018-Apr-04 03:00N 46°30' W 058°30'8 8.3 1024.6
2018-Apr-04 02:00N 46°30' W 058°18'1010.2 1025.4
2018-Apr-04 01:00N 46°36' W 058°06'1212.4 1025.1
2018-Apr-04 00:00N 46°36' W 057°48'8 8.2 1024.3
2018-Apr-03 23:00N 46°36' W 057°36'8 8.2 1023.1
2018-Apr-03 22:00N 46°36' W 057°24'1010.2 1022.3
2018-Apr-03 21:00N 46°42' W 057°12'8 8.2 1021.0
2018-Apr-03 20:00N 46°42' W 057°00'1212.3 1020.7
2018-Apr-03 19:00N 46°42' W 056°42'8 8.2 1020.1
2018-Apr-03 18:00N 46°42' W 056°30'1010.2 1019.0
2018-Apr-03 17:00N 46°48' W 056°18'4 4.1 1018.1
2018-Apr-03 16:00N 46°48' W 056°12'0 0.0 1019.0
2018-Apr-03 15:00N 46°48' W 056°12'   1019.0

Dump ship's entire track history